sensor_id;sensor_type;location;lat;lon;timestamp;pressure;altitude;pressure_sealevel;temperature;humidity
48882;BME280;57063;51.406;-2.402;2023-05-23T00:00:16;101529.72;;;11.85;75.68
48882;BME280;57063;51.406;-2.402;2023-05-23T00:02:41;101532.97;;;11.70;75.84
48882;BME280;57063;51.406;-2.402;2023-05-23T00:05:06;101537.38;;;11.68;77.22
48882;BME280;57063;51.406;-2.402;2023-05-23T00:07:32;101539.47;;;11.60;77.49
48882;BME280;57063;51.406;-2.402;2023-05-23T00:09:57;101540.59;;;11.54;78.24
48882;BME280;57063;51.406;-2.402;2023-05-23T00:12:23;101538.69;;;11.57;78.55
48882;BME280;57063;51.406;-2.402;2023-05-23T00:14:48;101538.97;;;11.51;78.73
48882;BME280;57063;51.406;-2.402;2023-05-23T00:17:13;101539.38;;;11.42;79.53
48882;BME280;57063;51.406;-2.402;2023-05-23T00:19:41;101545.47;;;11.41;80.05
48882;BME280;57063;51.406;-2.402;2023-05-23T00:22:09;101536.59;;;11.47;80.22
48882;BME280;57063;51.406;-2.402;2023-05-23T00:24:34;101537.72;;;11.41;80.32
48882;BME280;57063;51.406;-2.402;2023-05-23T00:27:00;101535.22;;;11.38;80.23
48882;BME280;57063;51.406;-2.402;2023-05-23T00:29:25;101536.94;;;11.39;80.03
48882;BME280;57063;51.406;-2.402;2023-05-23T00:31:51;101539.91;;;11.30;81.01
48882;BME280;57063;51.406;-2.402;2023-05-23T00:34:16;101540.09;;;11.25;81.55
48882;BME280;57063;51.406;-2.402;2023-05-23T00:36:41;101540.94;;;11.26;81.85
48882;BME280;57063;51.406;-2.402;2023-05-23T00:39:07;101537.56;;;11.24;82.48
48882;BME280;57063;51.406;-2.402;2023-05-23T00:41:33;101532.72;;;11.16;82.85
48882;BME280;57063;51.406;-2.402;2023-05-23T00:43:58;101524.72;;;11.22;82.84
48882;BME280;57063;51.406;-2.402;2023-05-23T00:46:27;101532.88;;;11.13;83.00
48882;BME280;57063;51.406;-2.402;2023-05-23T00:48:53;101531.91;;;11.16;83.23
48882;BME280;57063;51.406;-2.402;2023-05-23T00:51:19;101531.63;;;11.01;83.73
48882;BME280;57063;51.406;-2.402;2023-05-23T00:53:44;101536.09;;;10.98;84.36
48882;BME280;57063;51.406;-2.402;2023-05-23T00:56:09;101542.16;;;10.97;84.36
48882;BME280;57063;51.406;-2.402;2023-05-23T00:58:36;101548.59;;;10.86;85.59
48882;BME280;57063;51.406;-2.402;2023-05-23T01:01:01;101542.75;;;10.83;84.79
48882;BME280;57063;51.406;-2.402;2023-05-23T01:03:27;101549.69;;;10.81;85.70
48882;BME280;57063;51.406;-2.402;2023-05-23T01:05:53;101542.19;;;10.75;86.45
48882;BME280;57063;51.406;-2.402;2023-05-23T01:08:18;101549.59;;;10.62;87.00
48882;BME280;57063;51.406;-2.402;2023-05-23T01:10:43;101539.88;;;10.68;87.01
48882;BME280;57063;51.406;-2.402;2023-05-23T01:13:17;101540.53;;;10.52;87.76
48882;BME280;57063;51.406;-2.402;2023-05-23T01:15:49;101539.03;;;10.46;88.09
48882;BME280;57063;51.406;-2.402;2023-05-23T01:18:17;101536.16;;;10.54;88.53
48882;BME280;57063;51.406;-2.402;2023-05-23T01:28:27;101534.94;;;10.62;90.11
48882;BME280;57063;51.406;-2.402;2023-05-23T01:30:52;101526.22;;;10.65;89.63
48882;BME280;57063;51.406;-2.402;2023-05-23T01:33:21;101532.44;;;10.61;90.35
48882;BME280;57063;51.406;-2.402;2023-05-23T01:35:46;101528.09;;;10.61;90.65
48882;BME280;57063;51.406;-2.402;2023-05-23T01:38:12;101536.63;;;10.63;90.38
48882;BME280;57063;51.406;-2.402;2023-05-23T01:40:37;101535.72;;;10.64;90.10
48882;BME280;57063;51.406;-2.402;2023-05-23T01:43:03;101538.00;;;10.50;91.08
48882;BME280;57063;51.406;-2.402;2023-05-23T01:45:28;101541.56;;;10.47;91.83
48882;BME280;57063;51.406;-2.402;2023-05-23T01:47:54;101545.09;;;10.45;91.78
48882;BME280;57063;51.406;-2.402;2023-05-23T01:50:20;101544.31;;;10.43;91.96
48882;BME280;57063;51.406;-2.402;2023-05-23T01:52:46;101544.13;;;10.47;91.17
48882;BME280;57063;51.406;-2.402;2023-05-23T01:55:12;101546.59;;;10.50;90.52
48882;BME280;57063;51.406;-2.402;2023-05-23T01:57:40;101543.53;;;10.41;90.60
48882;BME280;57063;51.406;-2.402;2023-05-23T02:00:06;101542.16;;;10.32;91.50
48882;BME280;57063;51.406;-2.402;2023-05-23T02:02:35;101542.00;;;10.37;91.59
48882;BME280;57063;51.406;-2.402;2023-05-23T02:05:00;101540.94;;;10.41;90.71
48882;BME280;57063;51.406;-2.402;2023-05-23T02:07:26;101544.88;;;10.27;91.22
48882;BME280;57063;51.406;-2.402;2023-05-23T02:09:51;101548.34;;;10.26;91.74
48882;BME280;57063;51.406;-2.402;2023-05-23T02:12:16;101544.00;;;10.28;92.20
48882;BME280;57063;51.406;-2.402;2023-05-23T02:14:41;101550.72;;;10.33;91.24
48882;BME280;57063;51.406;-2.402;2023-05-23T02:17:07;101549.00;;;10.33;90.82
48882;BME280;57063;51.406;-2.402;2023-05-23T02:19:37;101548.81;;;10.38;90.69
48882;BME280;57063;51.406;-2.402;2023-05-23T02:22:02;101554.75;;;10.40;90.63
48882;BME280;57063;51.406;-2.402;2023-05-23T02:24:28;101568.81;;;10.33;91.29
48882;BME280;57063;51.406;-2.402;2023-05-23T02:26:53;101563.13;;;10.23;91.43
48882;BME280;57063;51.406;-2.402;2023-05-23T02:29:19;101560.38;;;10.27;91.50
48882;BME280;57063;51.406;-2.402;2023-05-23T02:31:44;101565.66;;;10.24;91.13
48882;BME280;57063;51.406;-2.402;2023-05-23T02:34:10;101554.94;;;10.12;90.76
48882;BME280;57063;51.406;-2.402;2023-05-23T02:36:35;101559.81;;;10.19;91.28
48882;BME280;57063;51.406;-2.402;2023-05-23T02:39:01;101561.03;;;10.09;90.99
48882;BME280;57063;51.406;-2.402;2023-05-23T02:41:26;101570.41;;;10.12;91.19
48882;BME280;57063;51.406;-2.402;2023-05-23T02:43:51;101566.00;;;10.15;89.98
48882;BME280;57063;51.406;-2.402;2023-05-23T02:46:17;101571.44;;;10.07;90.01
48882;BME280;57063;51.406;-2.402;2023-05-23T02:48:42;101574.03;;;10.07;90.13
48882;BME280;57063;51.406;-2.402;2023-05-23T02:51:07;101568.56;;;10.15;89.23
48882;BME280;57063;51.406;-2.402;2023-05-23T02:53:32;101568.91;;;10.06;88.80
48882;BME280;57063;51.406;-2.402;2023-05-23T02:55:57;101568.53;;;9.93;90.30
48882;BME280;57063;51.406;-2.402;2023-05-23T02:58:23;101568.25;;;10.01;89.48
48882;BME280;57063;51.406;-2.402;2023-05-23T03:00:49;101565.88;;;9.95;89.75
48882;BME280;57063;51.406;-2.402;2023-05-23T03:03:14;101571.38;;;9.85;90.12
48882;BME280;57063;51.406;-2.402;2023-05-23T03:05:41;101570.91;;;9.74;89.70
48882;BME280;57063;51.406;-2.402;2023-05-23T03:08:06;101579.44;;;9.76;89.94
48882;BME280;57063;51.406;-2.402;2023-05-23T03:10:32;101577.34;;;9.62;91.06
48882;BME280;57063;51.406;-2.402;2023-05-23T03:12:58;101574.59;;;9.67;90.76
48882;BME280;57063;51.406;-2.402;2023-05-23T03:15:23;101573.50;;;9.74;90.15
48882;BME280;57063;51.406;-2.402;2023-05-23T03:17:48;101576.31;;;9.68;90.42
48882;BME280;57063;51.406;-2.402;2023-05-23T03:20:13;101575.34;;;9.71;90.88
48882;BME280;57063;51.406;-2.402;2023-05-23T03:22:39;101575.56;;;9.64;90.97
48882;BME280;57063;51.406;-2.402;2023-05-23T03:25:07;101571.66;;;9.78;89.76
48882;BME280;57063;51.406;-2.402;2023-05-23T03:27:32;101567.66;;;9.69;90.19
48882;BME280;57063;51.406;-2.402;2023-05-23T03:29:58;101570.56;;;9.60;90.86
48882;BME280;57063;51.406;-2.402;2023-05-23T03:32:23;101565.41;;;9.60;90.34
48882;BME280;57063;51.406;-2.402;2023-05-23T03:34:48;101562.94;;;9.57;89.90
48882;BME280;57063;51.406;-2.402;2023-05-23T03:37:13;101563.25;;;9.48;89.88
48882;BME280;57063;51.406;-2.402;2023-05-23T03:39:39;101563.94;;;9.28;91.19
48882;BME280;57063;51.406;-2.402;2023-05-23T03:42:04;101567.59;;;9.22;93.42
48882;BME280;57063;51.406;-2.402;2023-05-23T03:44:29;101579.38;;;9.29;93.20
48882;BME280;57063;51.406;-2.402;2023-05-23T03:46:55;101578.34;;;9.33;92.71
48882;BME280;57063;51.406;-2.402;2023-05-23T03:49:20;101575.94;;;9.29;92.46
48882;BME280;57063;51.406;-2.402;2023-05-23T03:51:45;101576.88;;;9.26;93.33
48882;BME280;57063;51.406;-2.402;2023-05-23T03:54:10;101573.31;;;9.30;92.37
48882;BME280;57063;51.406;-2.402;2023-05-23T03:56:35;101577.03;;;9.21;91.87
48882;BME280;57063;51.406;-2.402;2023-05-23T03:59:01;101579.88;;;9.14;91.06
48882;BME280;57063;51.406;-2.402;2023-05-23T04:01:26;101582.66;;;9.08;91.03
48882;BME280;57063;51.406;-2.402;2023-05-23T04:03:51;101584.31;;;8.82;93.18
48882;BME280;57063;51.406;-2.402;2023-05-23T04:06:17;101581.81;;;8.52;97.56
48882;BME280;57063;51.406;-2.402;2023-05-23T04:08:44;101590.63;;;8.73;96.98
48882;BME280;57063;51.406;-2.402;2023-05-23T04:11:09;101584.47;;;8.77;95.96
48882;BME280;57063;51.406;-2.402;2023-05-23T04:13:34;101592.94;;;8.81;96.04
48882;BME280;57063;51.406;-2.402;2023-05-23T04:16:01;101591.47;;;8.74;96.30
48882;BME280;57063;51.406;-2.402;2023-05-23T04:18:29;101592.72;;;8.61;97.07
48882;BME280;57063;51.406;-2.402;2023-05-23T04:20:54;101597.91;;;8.59;96.95
48882;BME280;57063;51.406;-2.402;2023-05-23T04:23:20;101586.03;;;8.55;97.16
48882;BME280;57063;51.406;-2.402;2023-05-23T04:25:45;101598.91;;;8.55;97.89
48882;BME280;57063;51.406;-2.402;2023-05-23T04:28:12;101597.53;;;8.43;98.04
48882;BME280;57063;51.406;-2.402;2023-05-23T04:30:38;101599.13;;;8.47;98.22
48882;BME280;57063;51.406;-2.402;2023-05-23T04:33:03;101596.38;;;8.53;97.79
48882;BME280;57063;51.406;-2.402;2023-05-23T04:35:28;101599.50;;;8.63;97.23
48882;BME280;57063;51.406;-2.402;2023-05-23T04:37:54;101608.78;;;8.69;96.31
48882;BME280;57063;51.406;-2.402;2023-05-23T04:40:21;101605.97;;;8.76;96.37
48882;BME280;57063;51.406;-2.402;2023-05-23T04:42:46;101605.84;;;8.79;96.37
48882;BME280;57063;51.406;-2.402;2023-05-23T04:45:12;101610.06;;;8.82;96.58
48882;BME280;57063;51.406;-2.402;2023-05-23T04:47:37;101608.19;;;8.87;96.28
48882;BME280;57063;51.406;-2.402;2023-05-23T04:50:02;101609.88;;;8.88;95.50
48882;BME280;57063;51.406;-2.402;2023-05-23T04:52:28;101609.06;;;8.88;95.29
48882;BME280;57063;51.406;-2.402;2023-05-23T04:54:54;101613.16;;;8.93;96.03
48882;BME280;57063;51.406;-2.402;2023-05-23T04:57:20;101621.69;;;8.95;96.56
48882;BME280;57063;51.406;-2.402;2023-05-23T04:59:46;101618.97;;;9.00;96.64
48882;BME280;57063;51.406;-2.402;2023-05-23T05:02:11;101611.16;;;9.02;96.77
48882;BME280;57063;51.406;-2.402;2023-05-23T05:04:36;101612.75;;;9.06;96.00
48882;BME280;57063;51.406;-2.402;2023-05-23T05:07:01;101620.63;;;9.01;94.69
48882;BME280;57063;51.406;-2.402;2023-05-23T05:09:28;101619.50;;;9.10;94.88
48882;BME280;57063;51.406;-2.402;2023-05-23T05:11:54;101617.63;;;9.15;95.30
48882;BME280;57063;51.406;-2.402;2023-05-23T05:14:19;101614.09;;;9.17;95.80
48882;BME280;57063;51.406;-2.402;2023-05-23T05:16:45;101627.44;;;9.29;94.35
48882;BME280;57063;51.406;-2.402;2023-05-23T05:19:10;101624.03;;;9.28;93.87
48882;BME280;57063;51.406;-2.402;2023-05-23T05:21:36;101633.56;;;9.26;93.76
48882;BME280;57063;51.406;-2.402;2023-05-23T05:24:01;101636.88;;;9.30;93.54
48882;BME280;57063;51.406;-2.402;2023-05-23T05:26:26;101637.72;;;9.30;93.67
48882;BME280;57063;51.406;-2.402;2023-05-23T05:28:52;101635.09;;;9.32;93.97
48882;BME280;57063;51.406;-2.402;2023-05-23T05:31:17;101640.28;;;9.30;94.42
48882;BME280;57063;51.406;-2.402;2023-05-23T05:33:43;101635.72;;;9.38;94.39
48882;BME280;57063;51.406;-2.402;2023-05-23T05:36:09;101638.97;;;9.43;94.70
48882;BME280;57063;51.406;-2.402;2023-05-23T05:38:35;101642.06;;;9.55;94.54
48882;BME280;57063;51.406;-2.402;2023-05-23T05:41:00;101639.28;;;9.61;94.79
48882;BME280;57063;51.406;-2.402;2023-05-23T05:43:25;101650.06;;;9.72;94.50
48882;BME280;57063;51.406;-2.402;2023-05-23T05:45:50;101646.47;;;9.76;95.43
48882;BME280;57063;51.406;-2.402;2023-05-23T05:48:16;101654.69;;;9.88;94.59
48882;BME280;57063;51.406;-2.402;2023-05-23T05:50:41;101641.38;;;10.00;94.06
48882;BME280;57063;51.406;-2.402;2023-05-23T05:53:09;101639.91;;;10.16;94.06
48882;BME280;57063;51.406;-2.402;2023-05-23T05:55:34;101637.97;;;10.21;95.13
48882;BME280;57063;51.406;-2.402;2023-05-23T05:58:00;101633.19;;;10.36;94.23
48882;BME280;57063;51.406;-2.402;2023-05-23T06:00:25;101626.56;;;10.52;92.54
48882;BME280;57063;51.406;-2.402;2023-05-23T06:02:50;101625.66;;;10.75;91.16
48882;BME280;57063;51.406;-2.402;2023-05-23T06:05:16;101628.50;;;10.91;88.08
48882;BME280;57063;51.406;-2.402;2023-05-23T06:07:46;101627.03;;;11.06;87.76
48882;BME280;57063;51.406;-2.402;2023-05-23T06:10:11;101627.78;;;11.30;83.79
48882;BME280;57063;51.406;-2.402;2023-05-23T06:12:37;101631.00;;;11.55;82.51
48882;BME280;57063;51.406;-2.402;2023-05-23T06:15:03;101626.66;;;11.76;80.52
48882;BME280;57063;51.406;-2.402;2023-05-23T06:17:29;101624.84;;;11.99;81.29
48882;BME280;57063;51.406;-2.402;2023-05-23T06:19:54;101633.25;;;12.23;79.85
48882;BME280;57063;51.406;-2.402;2023-05-23T06:22:19;101633.19;;;12.99;77.01
48882;BME280;57063;51.406;-2.402;2023-05-23T06:24:47;101616.91;;;14.47;70.23
48882;BME280;57063;51.406;-2.402;2023-05-23T06:27:18;101623.69;;;14.50;66.11
48882;BME280;57063;51.406;-2.402;2023-05-23T06:32:11;101625.28;;;15.59;63.38
48882;BME280;57063;51.406;-2.402;2023-05-23T06:34:38;101631.06;;;15.64;63.08
48882;BME280;57063;51.406;-2.402;2023-05-23T06:37:24;101627.34;;;15.54;61.10
48882;BME280;57063;51.406;-2.402;2023-05-23T06:39:49;101630.84;;;15.53;60.36
48882;BME280;57063;51.406;-2.402;2023-05-23T06:42:15;101630.19;;;15.35;59.34
48882;BME280;57063;51.406;-2.402;2023-05-23T06:44:40;101626.72;;;15.20;60.62
48882;BME280;57063;51.406;-2.402;2023-05-23T06:47:05;101631.28;;;15.01;62.11
48882;BME280;57063;51.406;-2.402;2023-05-23T06:49:31;101625.97;;;14.72;61.63
48882;BME280;57063;51.406;-2.402;2023-05-23T06:51:56;101622.41;;;15.05;61.31
48882;BME280;57063;51.406;-2.402;2023-05-23T06:54:21;101627.34;;;15.24;60.78
48882;BME280;57063;51.406;-2.402;2023-05-23T06:56:46;101626.84;;;15.03;59.09
48882;BME280;57063;51.406;-2.402;2023-05-23T06:59:34;101631.56;;;14.80;59.89
48882;BME280;57063;51.406;-2.402;2023-05-23T07:02:01;101631.16;;;14.72;60.78
48882;BME280;57063;51.406;-2.402;2023-05-23T07:14:43;101639.44;;;15.69;57.44
48882;BME280;57063;51.406;-2.402;2023-05-23T07:17:08;101646.16;;;15.73;56.44
48882;BME280;57063;51.406;-2.402;2023-05-23T07:19:34;101650.63;;;15.86;57.55
48882;BME280;57063;51.406;-2.402;2023-05-23T07:21:59;101649.03;;;15.38;58.56
48882;BME280;57063;51.406;-2.402;2023-05-23T07:24:26;101646.19;;;15.57;58.47
48882;BME280;57063;51.406;-2.402;2023-05-23T07:26:51;101643.72;;;15.84;55.68
48882;BME280;57063;51.406;-2.402;2023-05-23T07:29:17;101645.00;;;15.63;55.90
48882;BME280;57063;51.406;-2.402;2023-05-23T07:31:44;101655.84;;;15.86;55.97
48882;BME280;57063;51.406;-2.402;2023-05-23T07:34:11;101652.94;;;16.19;54.92
48882;BME280;57063;51.406;-2.402;2023-05-23T07:36:37;101662.31;;;16.21;54.42
48882;BME280;57063;51.406;-2.402;2023-05-23T07:39:04;101651.13;;;16.34;53.78
48882;BME280;57063;51.406;-2.402;2023-05-23T07:41:30;101653.38;;;16.40;54.68
48882;BME280;57063;51.406;-2.402;2023-05-23T07:43:55;101661.06;;;16.14;54.37
48882;BME280;57063;51.406;-2.402;2023-05-23T07:46:20;101661.41;;;16.08;53.41
48882;BME280;57063;51.406;-2.402;2023-05-23T07:48:47;101664.22;;;15.91;52.89
48882;BME280;57063;51.406;-2.402;2023-05-23T07:51:12;101663.81;;;15.97;53.58
48882;BME280;57063;51.406;-2.402;2023-05-23T07:53:37;101662.44;;;16.05;51.36
48882;BME280;57063;51.406;-2.402;2023-05-23T07:56:04;101663.06;;;16.23;53.88
48882;BME280;57063;51.406;-2.402;2023-05-23T07:58:29;101668.78;;;16.57;53.89
48882;BME280;57063;51.406;-2.402;2023-05-23T08:00:54;101670.53;;;16.30;52.58
48882;BME280;57063;51.406;-2.402;2023-05-23T08:03:21;101669.47;;;16.46;52.54
48882;BME280;57063;51.406;-2.402;2023-05-23T08:05:47;101667.91;;;16.15;52.47
48882;BME280;57063;51.406;-2.402;2023-05-23T08:08:12;101666.81;;;16.05;55.11
48882;BME280;57063;51.406;-2.402;2023-05-23T08:10:37;101665.78;;;16.22;53.96
48882;BME280;57063;51.406;-2.402;2023-05-23T08:13:04;101657.50;;;15.87;52.80
48882;BME280;57063;51.406;-2.402;2023-05-23T08:15:30;101658.25;;;15.44;57.07
48882;BME280;57063;51.406;-2.402;2023-05-23T08:17:56;101659.84;;;15.47;55.63
48882;BME280;57063;51.406;-2.402;2023-05-23T08:20:22;101663.13;;;15.65;55.65
48882;BME280;57063;51.406;-2.402;2023-05-23T08:22:54;101662.94;;;15.53;56.08
48882;BME280;57063;51.406;-2.402;2023-05-23T08:25:22;101652.75;;;15.34;57.87
48882;BME280;57063;51.406;-2.402;2023-05-23T08:27:48;101653.31;;;15.39;54.40
48882;BME280;57063;51.406;-2.402;2023-05-23T08:30:13;101651.69;;;15.67;54.08
48882;BME280;57063;51.406;-2.402;2023-05-23T08:32:39;101664.81;;;15.66;53.52
48882;BME280;57063;51.406;-2.402;2023-05-23T08:35:04;101655.84;;;15.86;53.32
48882;BME280;57063;51.406;-2.402;2023-05-23T08:37:30;101643.50;;;15.59;53.05
48882;BME280;57063;51.406;-2.402;2023-05-23T08:39:55;101640.44;;;15.67;55.41
48882;BME280;57063;51.406;-2.402;2023-05-23T08:42:21;101642.91;;;15.84;52.98
48882;BME280;57063;51.406;-2.402;2023-05-23T08:44:46;101637.59;;;16.14;54.31
48882;BME280;57063;51.406;-2.402;2023-05-23T08:47:11;101621.06;;;15.87;53.90
48882;BME280;57063;51.406;-2.402;2023-05-23T08:49:39;101618.91;;;15.93;55.53
48882;BME280;57063;51.406;-2.402;2023-05-23T08:52:05;101623.84;;;15.98;53.73
48882;BME280;57063;51.406;-2.402;2023-05-23T08:54:34;101625.59;;;16.53;53.90
48882;BME280;57063;51.406;-2.402;2023-05-23T08:57:00;101633.63;;;16.77;51.70
48882;BME280;57063;51.406;-2.402;2023-05-23T08:59:26;101631.28;;;17.27;50.46
48882;BME280;57063;51.406;-2.402;2023-05-23T09:01:51;101630.31;;;17.02;49.23
48882;BME280;57063;51.406;-2.402;2023-05-23T09:04:19;101634.28;;;17.21;48.36
48882;BME280;57063;51.406;-2.402;2023-05-23T09:06:44;101632.13;;;17.40;48.67
48882;BME280;57063;51.406;-2.402;2023-05-23T09:09:10;101621.88;;;17.63;48.66
48882;BME280;57063;51.406;-2.402;2023-05-23T09:11:35;101630.25;;;17.55;50.07
48882;BME280;57063;51.406;-2.402;2023-05-23T09:14:01;101634.25;;;17.86;50.96
48882;BME280;57063;51.406;-2.402;2023-05-23T09:16:31;101639.44;;;18.12;49.91
48882;BME280;57063;51.406;-2.402;2023-05-23T09:18:57;101632.91;;;18.30;47.13
48882;BME280;57063;51.406;-2.402;2023-05-23T09:21:23;101627.75;;;18.42;47.77
48882;BME280;57063;51.406;-2.402;2023-05-23T09:23:48;101624.78;;;18.70;46.85
48882;BME280;57063;51.406;-2.402;2023-05-23T09:26:14;101628.13;;;18.85;46.46
48882;BME280;57063;51.406;-2.402;2023-05-23T09:28:41;101627.19;;;18.49;49.34
48882;BME280;57063;51.406;-2.402;2023-05-23T09:31:06;101630.97;;;19.29;46.58
48882;BME280;57063;51.406;-2.402;2023-05-23T09:33:50;101634.38;;;20.21;43.27
48882;BME280;57063;51.406;-2.402;2023-05-23T09:36:16;101632.28;;;20.15;45.42
48882;BME280;57063;51.406;-2.402;2023-05-23T09:38:45;101636.66;;;20.80;43.32
48882;BME280;57063;51.406;-2.402;2023-05-23T09:41:11;101643.88;;;20.56;43.60
48882;BME280;57063;51.406;-2.402;2023-05-23T09:43:52;101647.97;;;20.26;43.82
48882;BME280;57063;51.406;-2.402;2023-05-23T09:46:26;101657.72;;;20.35;44.81
48882;BME280;57063;51.406;-2.402;2023-05-23T09:48:52;101651.44;;;20.15;46.10
48882;BME280;57063;51.406;-2.402;2023-05-23T09:51:18;101652.72;;;20.32;43.97
48882;BME280;57063;51.406;-2.402;2023-05-23T09:53:47;101649.69;;;20.48;45.77
48882;BME280;57063;51.406;-2.402;2023-05-23T09:56:12;101651.56;;;20.14;42.84
48882;BME280;57063;51.406;-2.402;2023-05-23T09:58:39;101656.69;;;18.99;46.24
48882;BME280;57063;51.406;-2.402;2023-05-23T10:01:08;101647.09;;;19.00;49.55
48882;BME280;57063;51.406;-2.402;2023-05-23T10:03:44;101649.13;;;19.54;44.63
48882;BME280;57063;51.406;-2.402;2023-05-23T10:07:00;101653.47;;;20.00;44.07
48882;BME280;57063;51.406;-2.402;2023-05-23T10:09:04;101650.56;;;20.37;44.05
48882;BME280;57063;51.406;-2.402;2023-05-23T10:14:01;101648.47;;;20.20;45.39
48882;BME280;57063;51.406;-2.402;2023-05-23T10:16:30;101644.09;;;20.64;42.81
48882;BME280;57063;51.406;-2.402;2023-05-23T10:19:02;101644.16;;;20.30;42.50
48882;BME280;57063;51.406;-2.402;2023-05-23T10:21:33;101641.53;;;20.41;43.66
48882;BME280;57063;51.406;-2.402;2023-05-23T10:24:00;101637.44;;;20.48;45.17
48882;BME280;57063;51.406;-2.402;2023-05-23T10:26:26;101633.69;;;20.73;43.25
48882;BME280;57063;51.406;-2.402;2023-05-23T10:36:39;101654.06;;;19.23;48.43
48882;BME280;57063;51.406;-2.402;2023-05-23T10:49:47;101644.47;;;19.58;43.89
48882;BME280;57063;51.406;-2.402;2023-05-23T10:52:18;101647.19;;;18.98;46.00
48882;BME280;57063;51.406;-2.402;2023-05-23T10:59:50;101651.09;;;18.93;47.67
48882;BME280;57063;51.406;-2.402;2023-05-23T11:07:36;101651.84;;;19.06;47.03
48882;BME280;57063;51.406;-2.402;2023-05-23T11:10:20;101661.94;;;18.99;47.13
48882;BME280;57063;51.406;-2.402;2023-05-23T11:36:02;101652.72;;;20.32;43.60
48882;BME280;57063;51.406;-2.402;2023-05-23T11:38:29;101657.34;;;20.51;41.65
48882;BME280;57063;51.406;-2.402;2023-05-23T11:40:56;101654.34;;;20.56;43.40
48882;BME280;57063;51.406;-2.402;2023-05-23T11:43:25;101660.97;;;19.94;46.27
48882;BME280;57063;51.406;-2.402;2023-05-23T11:45:50;101658.97;;;19.97;44.13
48882;BME280;57063;51.406;-2.402;2023-05-23T11:48:16;101663.94;;;20.34;44.47
48882;BME280;57063;51.406;-2.402;2023-05-23T11:50:44;101653.19;;;20.37;43.66
48882;BME280;57063;51.406;-2.402;2023-05-23T11:53:11;101662.81;;;20.70;44.50
48882;BME280;57063;51.406;-2.402;2023-05-23T11:55:38;101664.41;;;20.39;44.16
48882;BME280;57063;51.406;-2.402;2023-05-23T11:58:04;101669.19;;;19.78;45.37
48882;BME280;57063;51.406;-2.402;2023-05-23T12:00:29;101670.84;;;20.24;43.35
48882;BME280;57063;51.406;-2.402;2023-05-23T12:02:55;101659.66;;;20.10;44.46
48882;BME280;57063;51.406;-2.402;2023-05-23T12:05:20;101666.50;;;19.44;46.00
48882;BME280;57063;51.406;-2.402;2023-05-23T12:07:47;101658.22;;;19.84;43.63
48882;BME280;57063;51.406;-2.402;2023-05-23T12:10:16;101663.41;;;20.51;43.71
48882;BME280;57063;51.406;-2.402;2023-05-23T12:12:42;101664.03;;;20.33;43.90
48882;BME280;57063;51.406;-2.402;2023-05-23T12:15:11;101670.28;;;20.75;42.77
48882;BME280;57063;51.406;-2.402;2023-05-23T12:17:37;101668.66;;;20.51;42.74
48882;BME280;57063;51.406;-2.402;2023-05-23T12:20:03;101667.84;;;20.51;41.07
48882;BME280;57063;51.406;-2.402;2023-05-23T12:22:29;101671.22;;;20.85;41.24
48882;BME280;57063;51.406;-2.402;2023-05-23T12:24:54;101673.00;;;21.17;42.10
48882;BME280;57063;51.406;-2.402;2023-05-23T12:27:32;101672.91;;;21.28;42.20
48882;BME280;57063;51.406;-2.402;2023-05-23T12:30:12;101666.56;;;21.63;40.06
48882;BME280;57063;51.406;-2.402;2023-05-23T12:32:38;101663.81;;;22.05;39.71
48882;BME280;57063;51.406;-2.402;2023-05-23T12:35:04;101658.09;;;21.38;42.72
48882;BME280;57063;51.406;-2.402;2023-05-23T12:37:29;101652.25;;;21.87;38.96
48882;BME280;57063;51.406;-2.402;2023-05-23T12:39:54;101658.00;;;22.11;38.89
48882;BME280;57063;51.406;-2.402;2023-05-23T12:42:20;101656.03;;;21.63;39.50
48882;BME280;57063;51.406;-2.402;2023-05-23T12:44:48;101646.56;;;21.51;39.10
48882;BME280;57063;51.406;-2.402;2023-05-23T12:47:13;101642.59;;;22.28;38.30
48882;BME280;57063;51.406;-2.402;2023-05-23T12:49:38;101644.16;;;22.59;38.76
48882;BME280;57063;51.406;-2.402;2023-05-23T12:52:04;101638.22;;;22.77;37.16
48882;BME280;57063;51.406;-2.402;2023-05-23T12:54:29;101640.44;;;23.11;36.68
48882;BME280;57063;51.406;-2.402;2023-05-23T12:56:55;101640.03;;;23.25;37.87
48882;BME280;57063;51.406;-2.402;2023-05-23T12:59:20;101641.44;;;23.10;38.54
48882;BME280;57063;51.406;-2.402;2023-05-23T13:01:45;101640.13;;;23.33;37.60
48882;BME280;57063;51.406;-2.402;2023-05-23T13:04:11;101634.38;;;23.00;36.43
48882;BME280;57063;51.406;-2.402;2023-05-23T13:06:36;101638.47;;;21.64;41.63
48882;BME280;57063;51.406;-2.402;2023-05-23T13:09:01;101633.66;;;21.69;39.30
48882;BME280;57063;51.406;-2.402;2023-05-23T13:11:27;101622.25;;;22.30;38.97
48882;BME280;57063;51.406;-2.402;2023-05-23T13:13:52;101621.47;;;22.58;39.23
48882;BME280;57063;51.406;-2.402;2023-05-23T13:16:18;101628.66;;;22.66;38.71
48882;BME280;57063;51.406;-2.402;2023-05-23T13:18:43;101629.38;;;23.17;38.31
48882;BME280;57063;51.406;-2.402;2023-05-23T13:21:08;101631.75;;;23.00;38.05
48882;BME280;57063;51.406;-2.402;2023-05-23T13:23:34;101634.63;;;22.97;38.21
48882;BME280;57063;51.406;-2.402;2023-05-23T13:26:01;101623.81;;;22.71;39.11
48882;BME280;57063;51.406;-2.402;2023-05-23T13:28:26;101630.59;;;22.64;38.90
48882;BME280;57063;51.406;-2.402;2023-05-23T13:30:53;101630.56;;;22.25;41.06
48882;BME280;57063;51.406;-2.402;2023-05-23T13:33:18;101644.81;;;21.92;43.70
48882;BME280;57063;51.406;-2.402;2023-05-23T13:35:44;101647.00;;;21.87;40.90
48882;BME280;57063;51.406;-2.402;2023-05-23T13:38:09;101644.25;;;21.57;43.64
48882;BME280;57063;51.406;-2.402;2023-05-23T13:40:34;101644.31;;;22.08;40.41
48882;BME280;57063;51.406;-2.402;2023-05-23T13:43:00;101636.22;;;21.80;40.23
48882;BME280;57063;51.406;-2.402;2023-05-23T13:45:25;101645.44;;;21.44;41.23
48882;BME280;57063;51.406;-2.402;2023-05-23T13:47:52;101640.63;;;20.95;43.29
48882;BME280;57063;51.406;-2.402;2023-05-23T13:50:17;101641.31;;;21.51;41.54
48882;BME280;57063;51.406;-2.402;2023-05-23T13:52:43;101636.56;;;21.66;43.60